sensor_id;sensor_type;location;lat;lon;timestamp;pressure;altitude;pressure_sealevel;temperature;humidity
60307;BME280;46155;52.364;6.580;2023-03-11T04:02:40;100453.59;;;-0.16;100.00
60307;BME280;46155;52.364;6.580;2023-03-11T04:05:06;100455.09;;;-0.19;100.00
60307;BME280;46155;52.364;6.580;2023-03-11T04:07:33;100460.88;;;-0.21;100.00
60307;BME280;46155;52.364;6.580;2023-03-11T04:09:59;100468.94;;;-0.27;100.00
60307;BME280;46155;52.364;6.580;2023-03-11T04:12:24;100478.31;;;-0.27;100.00
60307;BME280;46155;52.364;6.580;2023-03-11T04:14:50;100473.94;;;-0.28;100.00
60307;BME280;46155;52.364;6.580;2023-03-11T04:17:15;100475.16;;;-0.33;100.00
60307;BME280;46155;52.364;6.580;2023-03-11T04:19:42;100480.91;;;-0.36;100.00
60307;BME280;46155;52.364;6.580;2023-03-11T04:22:07;100488.34;;;-0.39;100.00
60307;BME280;46155;52.364;6.580;2023-03-11T04:24:33;100488.06;;;-0.42;100.00
60307;BME280;46155;52.364;6.580;2023-03-11T04:26:58;100490.34;;;-0.45;100.00
60307;BME280;46155;52.364;6.580;2023-03-11T04:29:24;100489.09;;;-0.49;100.00
60307;BME280;46155;52.364;6.580;2023-03-11T04:31:49;100500.63;;;-0.54;100.00
60307;BME280;46155;52.364;6.580;2023-03-11T04:34:14;100507.00;;;-0.59;100.00
60307;BME280;46155;52.364;6.580;2023-03-11T04:36:39;100502.44;;;-0.62;100.00
60307;BME280;46155;52.364;6.580;2023-03-11T04:39:06;100502.75;;;-0.67;100.00
60307;BME280;46155;52.364;6.580;2023-03-11T04:41:32;100505.19;;;-0.69;100.00
60307;BME280;46155;52.364;6.580;2023-03-11T04:43:58;100505.78;;;-0.72;100.00
60307;BME280;46155;52.364;6.580;2023-03-11T04:46:23;100511.53;;;-0.74;100.00
60307;BME280;46155;52.364;6.580;2023-03-11T04:48:48;100512.59;;;-0.72;100.00
60307;BME280;46155;52.364;6.580;2023-03-11T04:51:14;100515.78;;;-0.75;100.00
60307;BME280;46155;52.364;6.580;2023-03-11T04:53:39;100508.34;;;-0.80;100.00
60307;BME280;46155;52.364;6.580;2023-03-11T04:56:05;100520.94;;;-0.75;100.00
60307;BME280;46155;52.364;6.580;2023-03-11T04:58:30;100524.25;;;-0.76;100.00
60307;BME280;46155;52.364;6.580;2023-03-11T05:00:55;100522.13;;;-0.71;100.00
60307;BME280;46155;52.364;6.580;2023-03-11T05:03:21;100530.34;;;-0.66;100.00
60307;BME280;46155;52.364;6.580;2023-03-11T05:05:46;100524.56;;;-0.73;100.00
60307;BME280;46155;52.364;6.580;2023-03-11T05:08:12;100531.69;;;-0.70;100.00
60307;BME280;46155;52.364;6.580;2023-03-11T05:10:39;100535.19;;;-0.70;100.00
60307;BME280;46155;52.364;6.580;2023-03-11T05:13:04;100538.84;;;-0.67;100.00
60307;BME280;46155;52.364;6.580;2023-03-11T05:15:29;100542.81;;;-0.62;100.00
60307;BME280;46155;52.364;6.580;2023-03-11T05:17:55;100545.50;;;-0.70;100.00
60307;BME280;46155;52.364;6.580;2023-03-11T05:20:21;100543.25;;;-0.66;100.00
60307;BME280;46155;52.364;6.580;2023-03-11T05:22:46;100549.31;;;-0.66;100.00
60307;BME280;46155;52.364;6.580;2023-03-11T05:25:11;100560.06;;;-0.70;100.00
60307;BME280;46155;52.364;6.580;2023-03-11T05:27:37;100562.03;;;-0.67;100.00
60307;BME280;46155;52.364;6.580;2023-03-11T05:30:03;100565.38;;;-0.68;100.00
60307;BME280;46155;52.364;6.580;2023-03-11T05:32:28;100567.63;;;-0.72;100.00
60307;BME280;46155;52.364;6.580;2023-03-11T05:34:54;100573.69;;;-0.71;100.00
60307;BME280;46155;52.364;6.580;2023-03-11T05:37:19;100578.69;;;-0.73;100.00
60307;BME280;46155;52.364;6.580;2023-03-11T05:39:44;100580.81;;;-0.77;100.00
60307;BME280;46155;52.364;6.580;2023-03-11T05:42:09;100561.53;;;-0.81;100.00
60307;BME280;46155;52.364;6.580;2023-03-11T05:44:35;100569.47;;;-0.79;100.00
60307;BME280;46155;52.364;6.580;2023-03-11T05:47:01;100579.13;;;-0.77;100.00
60307;BME280;46155;52.364;6.580;2023-03-11T05:49:26;100575.97;;;-0.74;100.00
60307;BME280;46155;52.364;6.580;2023-03-11T05:51:52;100582.97;;;-0.73;100.00
60307;BME280;46155;52.364;6.580;2023-03-11T05:54:20;100564.91;;;-0.82;100.00
60307;BME280;46155;52.364;6.580;2023-03-11T05:56:46;100584.00;;;-0.80;100.00
60307;BME280;46155;52.364;6.580;2023-03-11T05:59:15;100586.75;;;-0.70;100.00
60307;BME280;46155;52.364;6.580;2023-03-11T06:01:41;100582.84;;;-0.57;100.00
60307;BME280;46155;52.364;6.580;2023-03-11T06:04:07;100582.97;;;-0.64;100.00
60307;BME280;46155;52.364;6.580;2023-03-11T06:06:34;100594.16;;;-0.73;100.00
60307;BME280;46155;52.364;6.580;2023-03-11T06:08:59;100599.16;;;-0.83;100.00
60307;BME280;46155;52.364;6.580;2023-03-11T06:11:26;100596.09;;;-0.96;100.00
60307;BME280;46155;52.364;6.580;2023-03-11T06:13:52;100603.47;;;-0.99;100.00
60307;BME280;46155;52.364;6.580;2023-03-11T06:16:19;100605.44;;;-1.06;100.00
60307;BME280;46155;52.364;6.580;2023-03-11T06:18:44;100602.81;;;-1.14;100.00
60307;BME280;46155;52.364;6.580;2023-03-11T06:21:15;100605.81;;;-1.18;100.00
60307;BME280;46155;52.364;6.580;2023-03-11T06:23:41;100606.25;;;-1.23;100.00
60307;BME280;46155;52.364;6.580;2023-03-11T06:26:06;100611.56;;;-1.21;100.00
60307;BME280;46155;52.364;6.580;2023-03-11T06:28:32;100614.28;;;-1.19;100.00
60307;BME280;46155;52.364;6.580;2023-03-11T06:31:06;100617.03;;;-1.18;100.00
60307;BME280;46155;52.364;6.580;2023-03-11T06:33:32;100621.44;;;-1.17;100.00
60307;BME280;46155;52.364;6.580;2023-03-11T06:35:58;100608.25;;;-1.20;100.00
60307;BME280;46155;52.364;6.580;2023-03-11T06:38:24;100631.47;;;-1.11;100.00
60307;BME280;46155;52.364;6.580;2023-03-11T06:40:50;100639.03;;;-1.13;100.00
60307;BME280;46155;52.364;6.580;2023-03-11T06:43:15;100653.41;;;-1.15;100.00
60307;BME280;46155;52.364;6.580;2023-03-11T06:45:40;100650.84;;;-1.15;100.00
60307;BME280;46155;52.364;6.580;2023-03-11T06:48:06;100653.75;;;-1.12;100.00
60307;BME280;46155;52.364;6.580;2023-03-11T06:50:31;100654.50;;;-1.13;100.00
60307;BME280;46155;52.364;6.580;2023-03-11T06:52:57;100653.31;;;-1.08;100.00
60307;BME280;46155;52.364;6.580;2023-03-11T06:55:22;100662.44;;;-1.02;100.00
60307;BME280;46155;52.364;6.580;2023-03-11T06:57:48;100666.41;;;-0.97;100.00
60307;BME280;46155;52.364;6.580;2023-03-11T07:00:14;100669.19;;;-0.87;100.00
60307;BME280;46155;52.364;6.580;2023-03-11T07:02:40;100669.59;;;-0.66;100.00
60307;BME280;46155;52.364;6.580;2023-03-11T07:05:06;100673.25;;;-0.56;100.00
60307;BME280;46155;52.364;6.580;2023-03-11T07:07:31;100675.75;;;-0.40;100.00
60307;BME280;46155;52.364;6.580;2023-03-11T07:09:56;100676.09;;;-0.19;100.00
60307;BME280;46155;52.364;6.580;2023-03-11T07:12:22;100678.22;;;0.03;100.00
60307;BME280;46155;52.364;6.580;2023-03-11T07:14:53;100678.88;;;0.26;100.00
60307;BME280;46155;52.364;6.580;2023-03-11T07:17:19;100674.63;;;0.36;100.00
60307;BME280;46155;52.364;6.580;2023-03-11T07:19:44;100689.78;;;0.32;100.00
60307;BME280;46155;52.364;6.580;2023-03-11T07:22:10;100684.66;;;0.50;100.00
60307;BME280;46155;52.364;6.580;2023-03-11T07:24:35;100696.19;;;0.54;100.00
60307;BME280;46155;52.364;6.580;2023-03-11T07:27:00;100693.13;;;0.66;100.00
60307;BME280;46155;52.364;6.580;2023-03-11T07:29:25;100701.47;;;0.90;100.00
60307;BME280;46155;52.364;6.580;2023-03-11T07:31:51;100700.88;;;0.84;100.00
60307;BME280;46155;52.364;6.580;2023-03-11T07:34:16;100709.22;;;0.90;100.00
60307;BME280;46155;52.364;6.580;2023-03-11T07:36:41;100713.16;;;1.04;100.00
60307;BME280;46155;52.364;6.580;2023-03-11T07:39:09;100710.38;;;1.11;100.00
60307;BME280;46155;52.364;6.580;2023-03-11T07:41:37;100719.31;;;1.32;100.00
60307;BME280;46155;52.364;6.580;2023-03-11T07:44:03;100719.41;;;1.43;100.00
60307;BME280;46155;52.364;6.580;2023-03-11T07:46:29;100727.28;;;1.53;100.00
60307;BME280;46155;52.364;6.580;2023-03-11T07:48:55;100727.41;;;1.63;100.00
60307;BME280;46155;52.364;6.580;2023-03-11T07:51:23;100737.91;;;1.65;100.00
60307;BME280;46155;52.364;6.580;2023-03-11T07:53:51;100725.81;;;1.74;100.00
60307;BME280;46155;52.364;6.580;2023-03-11T07:56:17;100742.66;;;1.88;100.00
60307;BME280;46155;52.364;6.580;2023-03-11T07:58:43;100748.72;;;1.97;100.00
60307;BME280;46155;52.364;6.580;2023-03-11T08:01:16;100749.41;;;2.05;100.00
60307;BME280;46155;52.364;6.580;2023-03-11T08:03:43;100754.25;;;2.11;100.00
60307;BME280;46155;52.364;6.580;2023-03-11T08:06:13;100755.00;;;2.18;100.00
60307;BME280;46155;52.364;6.580;2023-03-11T08:08:40;100755.28;;;2.21;100.00
60307;BME280;46155;52.364;6.580;2023-03-11T08:11:05;100767.41;;;2.31;100.00
60307;BME280;46155;52.364;6.580;2023-03-11T08:13:31;100770.34;;;2.45;100.00
60307;BME280;46155;52.364;6.580;2023-03-11T08:15:56;100779.06;;;2.64;100.00
60307;BME280;46155;52.364;6.580;2023-03-11T08:18:22;100772.03;;;2.63;100.00
60307;BME280;46155;52.364;6.580;2023-03-11T08:20:47;100768.81;;;2.66;100.00
60307;BME280;46155;52.364;6.580;2023-03-11T08:23:12;100765.34;;;2.65;100.00
60307;BME280;46155;52.364;6.580;2023-03-11T08:25:39;100763.06;;;2.79;100.00
60307;BME280;46155;52.364;6.580;2023-03-11T08:28:05;100760.25;;;2.86;100.00
60307;BME280;46155;52.364;6.580;2023-03-11T08:30:32;100776.34;;;2.92;100.00
60307;BME280;46155;52.364;6.580;2023-03-11T08:32:57;100761.91;;;3.04;100.00
60307;BME280;46155;52.364;6.580;2023-03-11T08:35:23;100777.34;;;3.22;100.00
60307;BME280;46155;52.364;6.580;2023-03-11T08:37:48;100770.19;;;3.19;100.00
60307;BME280;46155;52.364;6.580;2023-03-11T08:40:13;100764.63;;;3.25;100.00
60307;BME280;46155;52.364;6.580;2023-03-11T08:42:39;100771.56;;;3.16;100.00
60307;BME280;46155;52.364;6.580;2023-03-11T08:45:05;100774.50;;;3.29;100.00
60307;BME280;46155;52.364;6.580;2023-03-11T08:47:33;100769.84;;;3.75;100.00
60307;BME280;46155;52.364;6.580;2023-03-11T08:49:59;100776.75;;;3.85;100.00
60307;BME280;46155;52.364;6.580;2023-03-11T08:52:24;100773.91;;;3.82;100.00
60307;BME280;46155;52.364;6.580;2023-03-11T08:54:49;100772.31;;;3.73;100.00
60307;BME280;46155;52.364;6.580;2023-03-11T08:57:15;100765.06;;;3.79;100.00
60307;BME280;46155;52.364;6.580;2023-03-11T08:59:40;100770.25;;;3.79;100.00
60307;BME280;46155;52.364;6.580;2023-03-11T09:02:05;100770.34;;;3.60;100.00
60307;BME280;46155;52.364;6.580;2023-03-11T09:04:31;100764.91;;;3.68;100.00
60307;BME280;46155;52.364;6.580;2023-03-11T09:06:56;100774.16;;;3.85;100.00
60307;BME280;46155;52.364;6.580;2023-03-11T09:09:21;100766.38;;;3.95;100.00
60307;BME280;46155;52.364;6.580;2023-03-11T09:11:47;100783.81;;;4.17;100.00
60307;BME280;46155;52.364;6.580;2023-03-11T09:14:13;100796.41;;;4.12;100.00
60307;BME280;46155;52.364;6.580;2023-03-11T09:16:38;100798.75;;;4.19;100.00
60307;BME280;46155;52.364;6.580;2023-03-11T09:19:03;100780.44;;;4.28;100.00
60307;BME280;46155;52.364;6.580;2023-03-11T09:21:32;100802.69;;;4.35;100.00
60307;BME280;46155;52.364;6.580;2023-03-11T09:23:57;100797.09;;;4.30;100.00
60307;BME280;46155;52.364;6.580;2023-03-11T09:26:24;100803.56;;;4.25;100.00
60307;BME280;46155;52.364;6.580;2023-03-11T09:28:49;100782.78;;;4.35;100.00
60307;BME280;46155;52.364;6.580;2023-03-11T09:31:15;100804.75;;;4.28;100.00
60307;BME280;46155;52.364;6.580;2023-03-11T09:33:41;100809.56;;;4.34;100.00
60307;BME280;46155;52.364;6.580;2023-03-11T09:36:07;100810.34;;;4.43;100.00
60307;BME280;46155;52.364;6.580;2023-03-11T09:38:33;100810.59;;;4.46;100.00
60307;BME280;46155;52.364;6.580;2023-03-11T09:41:19;100813.09;;;4.65;100.00
60307;BME280;46155;52.364;6.580;2023-03-11T09:44:02;100810.63;;;4.67;98.75
60307;BME280;46155;52.364;6.580;2023-03-11T09:46:42;100799.66;;;4.81;100.00
60307;BME280;46155;52.364;6.580;2023-03-11T09:49:32;100809.94;;;4.90;100.00
60307;BME280;46155;52.364;6.580;2023-03-11T09:54:37;100816.28;;;5.04;99.43
60307;BME280;46155;52.364;6.580;2023-03-11T09:57:05;100812.13;;;4.96;92.53
60307;BME280;46155;52.364;6.580;2023-03-11T09:59:34;100824.25;;;4.95;98.36
60307;BME280;46155;52.364;6.580;2023-03-11T10:02:01;100825.13;;;4.96;91.42
60307;BME280;46155;52.364;6.580;2023-03-11T10:04:33;100826.81;;;5.06;94.32
60307;BME280;46155;52.364;6.580;2023-03-11T10:07:09;100824.06;;;5.14;95.30
60307;BME280;46155;52.364;6.580;2023-03-11T10:09:42;100832.94;;;5.16;94.02
60307;BME280;46155;52.364;6.580;2023-03-11T10:15:23;100841.47;;;5.26;96.94
60307;BME280;46155;52.364;6.580;2023-03-11T10:26:30;100844.88;;;5.25;90.57
60307;BME280;46155;52.364;6.580;2023-03-11T10:29:09;100850.19;;;5.37;97.42
60307;BME280;46155;52.364;6.580;2023-03-11T10:31:44;100847.84;;;5.29;97.33
60307;BME280;46155;52.364;6.580;2023-03-11T10:34:35;100844.34;;;5.18;96.67
60307;BME280;46155;52.364;6.580;2023-03-11T10:37:22;100839.69;;;5.25;97.94
60307;BME280;46155;52.364;6.580;2023-03-11T10:39:48;100851.22;;;5.28;96.83
60307;BME280;46155;52.364;6.580;2023-03-11T10:42:19;100843.78;;;5.33;97.76
60307;BME280;46155;52.364;6.580;2023-03-11T10:44:45;100848.88;;;5.42;98.18
60307;BME280;46155;52.364;6.580;2023-03-11T10:47:22;100842.72;;;5.51;97.85
60307;BME280;46155;52.364;6.580;2023-03-11T10:49:49;100845.47;;;5.43;96.23
60307;BME280;46155;52.364;6.580;2023-03-11T10:52:15;100839.41;;;5.32;95.08
60307;BME280;46155;52.364;6.580;2023-03-11T10:54:46;100842.00;;;5.32;96.35
60307;BME280;46155;52.364;6.580;2023-03-11T10:57:35;100833.38;;;5.33;97.58
60307;BME280;46155;52.364;6.580;2023-03-11T11:00:03;100836.97;;;5.23;94.67
60307;BME280;46155;52.364;6.580;2023-03-11T11:02:53;100836.53;;;5.29;93.42
60307;BME280;46155;52.364;6.580;2023-03-11T11:05:32;100841.31;;;5.45;97.26
60307;BME280;46155;52.364;6.580;2023-03-11T11:08:03;100841.34;;;5.67;96.76
60307;BME280;46155;52.364;6.580;2023-03-11T11:10:30;100831.44;;;5.73;94.00
60307;BME280;46155;52.364;6.580;2023-03-11T11:12:56;100839.94;;;5.93;95.26
60307;BME280;46155;52.364;6.580;2023-03-11T11:15:31;100828.97;;;5.97;93.70
60307;BME280;46155;52.364;6.580;2023-03-11T11:17:59;100838.03;;;6.12;92.60
60307;BME280;46155;52.364;6.580;2023-03-11T11:20:27;100836.00;;;6.08;88.77
60307;BME280;46155;52.364;6.580;2023-03-11T11:22:55;100836.22;;;6.11;90.35
60307;BME280;46155;52.364;6.580;2023-03-11T11:25:34;100841.88;;;6.06;88.86
60307;BME280;46155;52.364;6.580;2023-03-11T11:30:51;100848.41;;;6.00;89.61
60307;BME280;46155;52.364;6.580;2023-03-11T11:33:27;100851.78;;;5.99;88.51
60307;BME280;46155;52.364;6.580;2023-03-11T11:35:56;100849.69;;;5.95;87.14
60307;BME280;46155;52.364;6.580;2023-03-11T11:38:23;100853.09;;;5.94;87.87
60307;BME280;46155;52.364;6.580;2023-03-11T11:40:51;100842.53;;;6.03;91.36
60307;BME280;46155;52.364;6.580;2023-03-11T11:43:19;100843.41;;;6.03;86.42
60307;BME280;46155;52.364;6.580;2023-03-11T11:45:54;100843.66;;;6.07;90.34
60307;BME280;46155;52.364;6.580;2023-03-11T11:48:43;100847.78;;;6.15;88.81
60307;BME280;46155;52.364;6.580;2023-03-11T11:51:17;100844.81;;;6.10;89.55
60307;BME280;46155;52.364;6.580;2023-03-11T11:56:25;100845.56;;;6.19;86.87
60307;BME280;46155;52.364;6.580;2023-03-11T11:58:50;100847.34;;;6.20;86.21
60307;BME280;46155;52.364;6.580;2023-03-11T12:01:19;100849.53;;;6.26;87.16
60307;BME280;46155;52.364;6.580;2023-03-11T12:06:56;100853.31;;;6.08;84.34
60307;BME280;46155;52.364;6.580;2023-03-11T12:09:35;100848.75;;;6.05;84.17
60307;BME280;46155;52.364;6.580;2023-03-11T12:14:38;100860.94;;;6.16;80.88
60307;BME280;46155;52.364;6.580;2023-03-11T12:17:09;100866.41;;;6.19;82.72
60307;BME280;46155;52.364;6.580;2023-03-11T12:19:50;100860.94;;;6.16;82.85
60307;BME280;46155;52.364;6.580;2023-03-11T12:30:29;100864.13;;;5.80;82.67
60307;BME280;46155;52.364;6.580;2023-03-11T12:33:00;100853.16;;;5.74;77.23
60307;BME280;46155;52.364;6.580;2023-03-11T12:35:32;100864.13;;;5.80;74.76
60307;BME280;46155;52.364;6.580;2023-03-11T12:40:46;100857.19;;;5.80;77.76
60307;BME280;46155;52.364;6.580;2023-03-11T12:45:59;100842.75;;;5.74;76.72
60307;BME280;46155;52.364;6.580;2023-03-11T12:50:50;100845.47;;;5.75;77.38
60307;BME280;46155;52.364;6.580;2023-03-11T12:53:16;100849.13;;;5.77;81.03
60307;BME280;46155;52.364;6.580;2023-03-11T12:56:12;100842.34;;;5.79;80.73
60307;BME280;46155;52.364;6.580;2023-03-11T13:10:10;100827.22;;;5.85;79.55
60307;BME280;46155;52.364;6.580;2023-03-11T13:12:39;100839.38;;;5.75;77.88
60307;BME280;46155;52.364;6.580;2023-03-11T13:18:13;100837.97;;;5.68;78.30
60307;BME280;46155;52.364;6.580;2023-03-11T13:31:22;100849.91;;;5.76;72.54
60307;BME280;46155;52.364;6.580;2023-03-11T13:33:55;100851.44;;;5.84;75.07
60307;BME280;46155;52.364;6.580;2023-03-11T13:36:38;100849.84;;;5.86;76.62
60307;BME280;46155;52.364;6.580;2023-03-11T13:39:19;100847.25;;;5.86;75.09
60307;BME280;46155;52.364;6.580;2023-03-11T13:41:46;100848.16;;;5.97;73.97
60307;BME280;46155;52.364;6.580;2023-03-11T13:46:45;100842.34;;;5.79;74.88
60307;BME280;46155;52.364;6.580;2023-03-11T13:51:59;100850.09;;;5.90;78.22
60307;BME280;46155;52.364;6.580;2023-03-11T13:54:33;100838.88;;;6.01;77.39
60307;BME280;46155;52.364;6.580;2023-03-11T13:57:02;100852.06;;;6.02;75.28
60307;BME280;46155;52.364;6.580;2023-03-11T13:59:34;100856.09;;;5.99;73.71
60307;BME280;46155;52.364;6.580;2023-03-11T14:02:10;100850.59;;;5.96;73.56
60307;BME280;46155;52.364;6.580;2023-03-11T14:04:39;100843.38;;;5.81;71.45
60307;BME280;46155;52.364;6.580;2023-03-11T14:07:20;100834.53;;;5.79;73.35
60307;BME280;46155;52.364;6.580;2023-03-11T14:09:47;100864.09;;;6.12;70.93
60307;BME280;46155;52.364;6.580;2023-03-11T14:12:14;100861.25;;;6.09;71.57
60307;BME280;46155;52.364;6.580;2023-03-11T14:17:18;100871.97;;;6.02;65.42
60307;BME280;46155;52.364;6.580;2023-03-11T14:20:02;100874.03;;;6.06;69.73
60307;BME280;46155;52.364;6.580;2023-03-11T14:22:29;100864.41;;;5.95;68.39
60307;BME280;46155;52.364;6.580;2023-03-11T14:24:57;100863.13;;;5.90;68.37
60307;BME280;46155;52.364;6.580;2023-03-11T14:27:22;100877.56;;;5.96;69.37
60307;BME280;46155;52.364;6.580;2023-03-11T14:29:48;100883.97;;;6.00;71.07
60307;BME280;46155;52.364;6.580;2023-03-11T14:32:33;100879.25;;;6.06;73.51
60307;BME280;46155;52.364;6.580;2023-03-11T14:34:59;100872.97;;;6.14;74.32
60307;BME280;46155;52.364;6.580;2023-03-11T14:37:31;100876.69;;;6.18;72.22
60307;BME280;46155;52.364;6.580;2023-03-11T14:39:58;100870.34;;;6.14;65.58
60307;BME280;46155;52.364;6.580;2023-03-11T14:42:30;100886.66;;;6.12;66.67
60307;BME280;46155;52.364;6.580;2023-03-11T14:45:25;100882.63;;;6.05;67.69
60307;BME280;46155;52.364;6.580;2023-03-11T14:48:02;100883.97;;;6.00;65.44
60307;BME280;46155;52.364;6.580;2023-03-11T14:50:30;100883.97;;;6.00;63.70
60307;BME280;46155;52.364;6.580;2023-03-11T14:55:54;100895.94;;;6.08;62.57
60307;BME280;46155;52.364;6.580;2023-03-11T14:58:39;100883.72;;;5.97;64.55
60307;BME280;46155;52.364;6.580;2023-03-11T15:01:10;100891.38;;;5.95;62.99
60307;BME280;46155;52.364;6.580;2023-03-11T15:03:40;100886.47;;;5.98;65.42
60307;BME280;46155;52.364;6.580;2023-03-11T15:06:13;100890.88;;;5.99;67.65
60307;BME280;46155;52.364;6.580;2023-03-11T15:08:51;100888.75;;;5.95;64.34
60307;BME280;46155;52.364;6.580;2023-03-11T15:11:24;100886.31;;;5.97;62.92
60307;BME280;46155;52.364;6.580;2023-03-11T15:13:51;100890.22;;;5.92;64.66
60307;BME280;46155;52.364;6.580;2023-03-11T15:16:28;100892.56;;;5.99;64.59
60307;BME280;46155;52.364;6.580;2023-03-11T15:18:53;100888.66;;;5.94;62.59
60307;BME280;46155;52.364;6.580;2023-03-11T15:21:21;100887.75;;;5.93;63.57
60307;BME280;46155;52.364;6.580;2023-03-11T15:26:20;100886.31;;;5.97;62.21
60307;BME280;46155;52.364;6.580;2023-03-11T15:28:55;100876.44;;;5.82;63.66
60307;BME280;46155;52.364;6.580;2023-03-11T15:33:47;100880.88;;;5.83;62.61
60307;BME280;46155;52.364;6.580;2023-03-11T15:36:33;100885.59;;;5.77;63.89
60307;BME280;46155;52.364;6.580;2023-03-11T15:39:17;100883.00;;;5.67;62.24
60307;BME280;46155;52.364;6.580;2023-03-11T15:41:56;100879.16;;;5.62;62.73
60307;BME280;46155;52.364;6.580;2023-03-11T15:44:31;100880.69;;;5.60;63.56
60307;BME280;46155;52.364;6.580;2023-03-11T15:46:57;100875.53;;;5.49;62.42
60307;BME280;46155;52.364;6.580;2023-03-11T15:49:27;100883.63;;;5.42;62.47
60307;BME280;46155;52.364;6.580;2023-03-11T15:51:57;100882.59;;;5.40;62.84
60307;BME280;46155;52.364;6.580;2023-03-11T15:54:22;100888.22;;;5.34;62.46
60307;BME280;46155;52.364;6.580;2023-03-11T15:56:47;100880.00;;;5.30;62.92
60307;BME280;46155;52.364;6.580;2023-03-11T15:59:15;100883.66;;;5.32;64.94
60307;BME280;46155;52.364;6.580;2023-03-11T16:01:41;100882.63;;;5.20;62.28
60307;BME280;46155;52.364;6.580;2023-03-11T16:04:14;100888.34;;;5.15;62.28
60307;BME280;46155;52.364;6.580;2023-03-11T16:06:41;100882.00;;;5.12;63.46
60307;BME280;46155;52.364;6.580;2023-03-11T16:09:07;100868.84;;;5.00;63.24
60307;BME280;46155;52.364;6.580;2023-03-11T16:11:32;100879.66;;;5.05;64.71
60307;BME280;46155;52.364;6.580;2023-03-11T16:13:58;100881.34;;;5.04;64.63
60307;BME280;46155;52.364;6.580;2023-03-11T16:16:24;100870.44;;;4.98;65.56
60307;BME280;46155;52.364;6.580;2023-03-11T16:18:49;100876.25;;;5.06;67.04
60307;BME280;46155;52.364;6.580;2023-03-11T16:21:18;100879.25;;;5.00;65.80
60307;BME280;46155;52.364;6.580;2023-03-11T16:23:45;100881.09;;;5.01;65.80
60307;BME280;46155;52.364;6.580;2023-03-11T16:26:11;100877.47;;;4.99;67.01
60307;BME280;46155;52.364;6.580;2023-03-11T16:28:37;100883.94;;;4.94;66.88
60307;BME280;46155;52.364;6.580;2023-03-11T16:31:04;100867.44;;;4.93;67.80
60307;BME280;46155;52.364;6.580;2023-03-11T16:33:29;100878.34;;;4.99;68.50
60307;BME280;46155;52.364;6.580;2023-03-11T16:35:54;100877.16;;;4.96;68.36
60307;BME280;46155;52.364;6.580;2023-03-11T16:38:20;100876.16;;;4.94;68.67
60307;BME280;46155;52.364;6.580;2023-03-11T16:40:58;100879.00;;;4.97;69.37
60307;BME280;46155;52.364;6.580;2023-03-11T16:43:24;100866.25;;;4.90;69.56
60307;BME280;46155;52.364;6.580;2023-03-11T16:45:50;100882.38;;;4.96;70.85
60307;BME280;46155;52.364;6.580;2023-03-11T16:48:17;100880.47;;;4.93;69.87
60307;BME280;46155;52.364;6.580;2023-03-11T16:50:43;100875.38;;;4.95;69.85
60307;BME280;46155;52.364;6.580;2023-03-11T16:53:08;100878.25;;;4.88;70.02
60307;BME280;46155;52.364;6.580;2023-03-11T16:55:33;100883.16;;;4.85;71.20
60307;BME280;46155;52.364;6.580;2023-03-11T16:57:59;100887.84;;;4.78;70.59
60307;BME280;46155;52.364;6.580;2023-03-11T17:00:24;100883.16;;;4.64;70.45
60307;BME280;46155;52.364;6.580;2023-03-11T17:02:50;100884.19;;;4.56;68.90
60307;BME280;46155;52.364;6.580;2023-03-11T17:05:16;100898.91;;;4.55;69.09
60307;BME280;46155;52.364;6.580;2023-03-11T17:07:41;100884.59;;;4.50;71.51
60307;BME280;46155;52.364;6.580;2023-03-11T17:10:08;100895.09;;;4.52;71.30
60307;BME280;46155;52.364;6.580;2023-03-11T17:12:34;100892.00;;;4.45;72.72
60307;BME280;46155;52.364;6.580;2023-03-11T17:15:00;100887.03;;;4.38;73.12
60307;BME280;46155;52.364;6.580;2023-03-11T17:17:26;100896.38;;;4.36;73.93
60307;BME280;46155;52.364;6.580;2023-03-11T17:19:51;100889.59;;;4.28;74.72
60307;BME280;46155;52.364;6.580;2023-03-11T17:22:17;100892.94;;;4.17;74.07
60307;BME280;46155;52.364;6.580;2023-03-11T17:24:42;100886.69;;;4.04;74.87
60307;BME280;46155;52.364;6.580;2023-03-11T17:27:07;100895.25;;;4.03;75.23
60307;BME280;46155;52.364;6.580;2023-03-11T17:29:33;100899.13;;;3.98;75.16
60307;BME280;46155;52.364;6.580;2023-03-11T17:31:59;100898.47;;;3.90;75.25
60307;BME280;46155;52.364;6.580;2023-03-11T17:34:25;100897.25;;;3.87;75.64
60307;BME280;46155;52.364;6.580;2023-03-11T17:36:50;100896.19;;;3.74;75.72
60307;BME280;46155;52.364;6.580;2023-03-11T17:39:16;100894.72;;;3.68;77.00
60307;BME280;46155;52.364;6.580;2023-03-11T17:41:41;100910.22;;;3.76;77.69
60307;BME280;46155;52.364;6.580;2023-03-11T17:44:06;100908.34;;;3.94;85.32
60307;BME280;46155;52.364;6.580;2023-03-11T17:46:32;100914.19;;;3.92;77.21
60307;BME280;46155;52.364;6.580;2023-03-11T17:49:00;100922.44;;;3.77;77.00
60307;BME280;46155;52.364;6.580;2023-03-11T17:51:25;100919.47;;;3.64;76.72
60307;BME280;46155;52.364;6.580;2023-03-11T17:53:53;100917.38;;;3.60;75.92
60307;BME280;46155;52.364;6.580;2023-03-11T17:56:19;100928.78;;;3.52;76.81
60307;BME280;46155;52.364;6.580;2023-03-11T17:58:45;100923.00;;;3.45;77.92
60307;BME280;46155;52.364;6.580;2023-03-11T18:01:14;100924.31;;;3.40;78.38
60307;BME280;46155;52.364;6.580;2023-03-11T18:03:40;100929.19;;;3.37;80.02
60307;BME280;46155;52.364;6.580;2023-03-11T18:06:06;100926.19;;;3.33;81.17
60307;BME280;46155;52.364;6.580;2023-03-11T18:08:33;100925.63;;;3.26;80.22
60307;BME280;46155;52.364;6.580;2023-03-11T18:11:04;100928.50;;;3.10;77.98
60307;BME280;46155;52.364;6.580;2023-03-11T18:13:31;100925.47;;;3.06;79.29
60307;BME280;46155;52.364;6.580;2023-03-11T18:15:58;100928.78;;;3.14;82.18
60307;BME280;46155;52.364;6.580;2023-03-11T18:18:24;100930.44;;;3.51;86.10
60307;BME280;46155;52.364;6.580;2023-03-11T18:20:49;100929.06;;;3.55;82.81
60307;BME280;46155;52.364;6.580;2023-03-11T18:23:14;100929.06;;;3.55;82.24